createdAt,value
2018-05-14T00:02:13.277Z,96920.56
2018-05-14T00:04:46.957Z,96929.08
2018-05-14T00:07:21.096Z,96931.38
2018-05-14T00:09:53.749Z,96937.44
2018-05-14T00:12:24.541Z,96939.86
2018-05-14T00:14:54.609Z,96929.95
2018-05-14T00:17:28.213Z,96927.94
2018-05-14T00:20:02.259Z,96938.38
2018-05-14T00:22:32.081Z,96933.76
2018-05-14T00:25:04.452Z,96941.21
2018-05-14T00:27:36.894Z,96925.52
2018-05-14T00:30:08.563Z,96930.95
2018-05-14T00:32:40.749Z,96934.49
2018-05-14T00:35:11.064Z,96932.58
2018-05-14T00:37:43.034Z,96943.27
2018-05-14T00:40:16.520Z,96946.66
2018-05-14T00:42:47.791Z,96947.50
2018-05-14T00:45:17.896Z,96946.02
2018-05-14T00:47:48.402Z,96944.81
2018-05-14T00:50:18.769Z,96947.38
2018-05-14T00:52:48.437Z,96942.26
2018-05-14T00:55:18.790Z,96938.23
2018-05-14T00:57:49.728Z,96934.06
2018-05-14T01:00:20.042Z,96935.67
2018-05-14T01:02:49.721Z,96943.64
2018-05-14T01:05:19.253Z,96937.30
2018-05-14T01:07:49.350Z,96949.06
2018-05-14T01:10:20.013Z,96931.36
2018-05-14T01:12:51.275Z,96930.27
2018-05-14T01:15:21.957Z,96931.09
2018-05-14T01:17:53.128Z,96937.33
2018-05-14T01:20:22.916Z,96943.95
2018-05-14T01:22:54.104Z,96952.58
2018-05-14T01:25:24.731Z,96949.48
2018-05-14T01:27:54.556Z,96942.34
2018-05-14T01:30:29.620Z,96950.02
2018-05-14T01:32:59.517Z,96956.66
2018-05-14T01:35:29.205Z,96955.44
2018-05-14T01:37:58.911Z,96965.31
2018-05-14T01:40:28.673Z,96973.55
2018-05-14T01:42:59.761Z,96977.60
2018-05-14T01:45:30.259Z,96975.29
2018-05-14T01:48:00.817Z,96973.39
2018-05-14T01:50:31.269Z,96973.92
2018-05-14T01:53:00.966Z,96986.77
2018-05-14T01:55:30.983Z,96983.94
2018-05-14T01:58:01.444Z,96985.83
2018-05-14T02:00:31.499Z,96984.89
2018-05-14T02:03:02.011Z,96995.11
2018-05-14T02:05:31.671Z,96994.02
2018-05-14T02:08:02.195Z,96992.53
2018-05-14T02:10:31.806Z,96991.00
2018-05-14T02:13:03.265Z,96989.64
2018-05-14T02:15:32.982Z,96993.09
2018-05-14T02:18:07.147Z,96992.69
2018-05-14T02:20:37.900Z,96987.91
2018-05-14T02:23:07.542Z,96995.17
2018-05-14T02:25:37.391Z,96999.05
2018-05-14T02:28:08.901Z,96994.36
2018-05-14T02:30:41.876Z,96991.52
2018-05-14T02:33:11.830Z,97004.73
2018-05-14T02:35:42.998Z,97003.94
2018-05-14T02:38:13.061Z,97003.65
2018-05-14T02:40:43.090Z,97003.87
2018-05-14T02:43:14.933Z,96997.64
2018-05-14T02:45:45.114Z,96994.77
2018-05-14T02:48:19.247Z,96990.16
2018-05-14T02:50:49.094Z,96990.83
2018-05-14T02:53:19.474Z,96985.77
2018-05-14T02:55:49.345Z,96994.38
2018-05-14T02:58:20.812Z,96998.42
2018-05-14T03:00:54.759Z,97006.36
2018-05-14T03:03:25.465Z,97011.60
2018-05-14T03:05:55.862Z,97014.13
2018-05-14T03:08:25.572Z,97024.44
2018-05-14T03:10:55.198Z,97024.35
2018-05-14T03:13:25.442Z,97023.83
2018-05-14T03:15:55.195Z,97030.18
2018-05-14T03:18:26.299Z,97019.78
2018-05-14T03:20:55.921Z,97022.59
2018-05-14T03:23:25.614Z,97025.78
2018-05-14T03:25:55.503Z,97019.84
2018-05-14T03:28:25.230Z,97018.63
2018-05-14T03:30:55.686Z,97029.30
2018-05-14T03:33:25.450Z,97027.28
2018-05-14T03:35:55.017Z,97032.11
2018-05-14T03:38:24.770Z,97034.48
2018-05-14T03:40:55.600Z,97039.05
2018-05-14T03:43:25.238Z,97031.61
2018-05-14T03:45:55.297Z,97023.81
2018-05-14T03:48:25.565Z,97017.72
2018-05-14T03:50:55.208Z,97014.32
2018-05-14T03:53:25.585Z,97023.39
2018-05-14T03:55:55.189Z,97026.91
2018-05-14T03:58:44.764Z,97021.89
2018-05-14T04:01:15.821Z,97023.77
2018-05-14T04:04:03.466Z,97021.19
2018-05-14T04:06:38.219Z,97031.09
2018-05-14T04:09:08.642Z,97040.82
2018-05-14T04:11:47.161Z,97040.72
2018-05-14T04:14:16.968Z,97039.67
2018-05-14T04:16:46.813Z,97049.20
2018-05-14T04:19:17.268Z,97054.55
2018-05-14T04:21:46.812Z,97052.27
2018-05-14T04:24:18.141Z,97048.38
2018-05-14T04:26:48.007Z,97053.80
2018-05-14T04:29:18.075Z,97049.95
2018-05-14T04:31:47.621Z,97054.36
2018-05-14T04:34:17.343Z,97059.19
2018-05-14T04:36:47.891Z,97060.16
2018-05-14T04:39:17.591Z,97073.60
2018-05-14T04:41:47.336Z,97076.30
2018-05-14T04:44:16.927Z,97070.91
2018-05-14T04:46:46.525Z,97068.33
2018-05-14T04:49:16.163Z,97070.98
2018-05-14T04:51:45.967Z,97068.98
2018-05-14T04:54:15.690Z,97065.39
2018-05-14T04:56:45.488Z,97059.33
2018-05-14T04:59:15.307Z,97063.26
2018-05-14T05:01:45.041Z,97058.72
2018-05-14T05:04:14.690Z,97057.43
2018-05-14T05:06:44.321Z,97054.97
2018-05-14T05:09:13.894Z,97057.55
2018-05-14T05:11:43.665Z,97055.67
2018-05-14T05:14:13.137Z,97060.56
2018-05-14T05:16:42.831Z,97064.23
2018-05-14T05:19:13.106Z,97070.85
2018-05-14T05:21:44.421Z,97069.27
2018-05-14T05:24:15.072Z,97065.83
2018-05-14T05:26:44.748Z,97075.38
2018-05-14T05:29:14.516Z,97073.47
2018-05-14T05:31:44.139Z,97082.58
2018-05-14T05:34:15.468Z,97080.53
2018-05-14T05:36:45.425Z,97080.55
2018-05-14T05:39:15.097Z,97079.27
2018-05-14T05:41:44.831Z,97079.66
2018-05-14T05:44:16.151Z,97082.40
2018-05-14T05:46:45.812Z,97086.58
2018-05-14T05:49:16.311Z,97079.16
2018-05-14T05:51:48.153Z,97085.41
2018-05-14T05:54:18.535Z,97082.27
2018-05-14T05:56:48.236Z,97083.27
2018-05-14T05:59:18.032Z,97077.38
2018-05-14T06:01:47.907Z,97079.80
2018-05-14T06:04:17.600Z,97076.61
2018-05-14T06:06:47.299Z,97082.91
2018-05-14T06:09:18.141Z,97085.84
2018-05-14T06:11:47.814Z,97082.94
2018-05-14T06:14:18.271Z,97078.95
2018-05-14T06:16:47.795Z,97077.41
2018-05-14T06:19:17.380Z,97088.52
2018-05-14T06:21:47.192Z,97086.05
2018-05-14T06:24:16.759Z,97087.92
2018-05-14T06:26:46.626Z,97087.77
2018-05-14T06:29:16.234Z,97095.83
2018-05-14T06:31:45.745Z,97098.90
2018-05-14T06:34:15.891Z,97097.91
2018-05-14T06:36:45.552Z,97096.72
2018-05-14T06:39:16.926Z,97094.05
2018-05-14T06:41:46.853Z,97084.80
2018-05-14T06:44:16.610Z,97095.95
2018-05-14T06:46:46.306Z,97098.96
2018-05-14T06:49:17.048Z,97103.89
2018-05-14T06:51:46.923Z,97101.36
2018-05-14T06:54:16.810Z,97104.37
2018-05-14T06:56:46.559Z,97104.18
2018-05-14T06:59:16.749Z,97108.45
2018-05-14T07:01:47.482Z,97119.36
2018-05-14T07:04:17.735Z,97120.27
2018-05-14T07:06:47.669Z,97121.43
2018-05-14T07:09:18.171Z,97123.31
2018-05-14T07:11:48.073Z,97116.83
2018-05-14T07:14:18.579Z,97109.82
2018-05-14T07:16:54.745Z,97109.16
2018-05-14T07:19:26.466Z,97110.42
2018-05-14T07:21:56.280Z,97110.14
2018-05-14T07:24:27.116Z,97107.94
2018-05-14T07:26:56.954Z,97105.91
2018-05-14T07:29:26.702Z,97101.20
2018-05-14T07:31:56.754Z,97095.45
2018-05-14T07:34:26.725Z,97099.51
2018-05-14T07:36:57.661Z,97093.80
2018-05-14T07:39:28.520Z,97085.16
2018-05-14T07:41:59.680Z,97085.89
2018-05-14T07:44:29.609Z,97087.94
2018-05-14T07:47:00.258Z,97094.36
2018-05-14T07:49:30.035Z,97102.64
2018-05-14T07:52:00.009Z,97105.35
2018-05-14T07:54:29.664Z,97111.09
2018-05-14T07:57:01.064Z,97111.38
2018-05-14T07:59:32.162Z,97117.69
2018-05-14T08:02:03.208Z,97115.70
2018-05-14T08:04:33.037Z,97113.82
2018-05-14T08:07:04.433Z,97116.36
2018-05-14T08:09:37.566Z,97112.59
2018-05-14T08:12:08.189Z,97119.66
2018-05-14T08:14:39.820Z,97115.56
2018-05-14T08:17:09.972Z,97126.22
2018-05-14T08:19:41.440Z,97129.76
2018-05-14T08:22:11.432Z,97124.56
2018-05-14T08:24:41.410Z,97132.34
2018-05-14T08:27:12.504Z,97139.18
2018-05-14T08:29:43.744Z,97136.39
2018-05-14T08:32:13.799Z,97132.92
2018-05-14T08:34:43.631Z,97134.84
2018-05-14T08:37:13.749Z,97133.84
2018-05-14T08:39:43.512Z,97134.87
2018-05-14T08:42:13.929Z,97130.30
2018-05-14T08:44:43.847Z,97119.27
2018-05-14T08:47:14.541Z,97122.95
2018-05-14T08:49:44.650Z,97124.07
2018-05-14T08:52:15.250Z,97124.36
2018-05-14T08:54:45.864Z,97122.08
2018-05-14T08:57:15.792Z,97122.67
2018-05-14T08:59:47.976Z,97126.64
2018-05-14T09:02:18.796Z,97122.00
2018-05-14T09:04:50.789Z,97119.33
2018-05-14T09:07:20.678Z,97124.55
2018-05-14T09:09:51.075Z,97117.28
2018-05-14T09:12:20.803Z,97116.03
2018-05-14T09:14:51.036Z,97113.46
2018-05-14T09:17:21.782Z,97114.78
2018-05-14T09:19:52.227Z,97113.80
2018-05-14T09:22:22.444Z,97112.10
2018-05-14T09:24:55.073Z,97119.23
2018-05-14T09:27:24.988Z,97121.64
2018-05-14T09:29:54.919Z,97125.78
2018-05-14T09:32:25.707Z,97128.91
2018-05-14T09:34:57.009Z,97125.15
2018-05-14T09:37:27.639Z,97132.21
2018-05-14T09:39:58.183Z,97138.32
2018-05-14T09:42:34.494Z,97144.25
2018-05-14T09:45:04.776Z,97146.23
2018-05-14T09:54:46.564Z,97154.73
2018-05-14T09:57:37.127Z,97153.34
2018-05-14T10:00:07.847Z,97154.55
2018-05-14T10:02:38.674Z,97156.78
2018-05-14T10:05:09.477Z,97158.73
2018-05-14T10:07:39.258Z,97159.99
2018-05-14T10:10:09.176Z,97165.06
2018-05-14T10:12:40.301Z,97169.31
2018-05-14T10:15:14.633Z,97164.27
2018-05-14T10:17:45.137Z,97169.12
2018-05-14T10:20:18.483Z,97177.13
2018-05-14T10:22:50.611Z,97168.94
2018-05-14T10:25:20.769Z,97170.28
2018-05-14T10:27:51.958Z,97169.86
2018-05-14T10:30:22.268Z,97168.75
2018-05-14T10:32:53.658Z,97170.16
2018-05-14T10:35:23.550Z,97159.00
2018-05-14T10:37:54.870Z,97160.79
2018-05-14T10:40:24.894Z,97157.84
2018-05-14T10:43:01.058Z,97160.34
2018-05-14T10:45:31.883Z,97148.89
2018-05-14T10:48:02.009Z,97149.74
2018-05-14T10:50:32.674Z,97157.07
2018-05-14T10:53:02.513Z,97146.61
2018-05-14T10:55:32.989Z,97147.98
2018-05-14T10:58:04.378Z,97145.42
2018-05-14T11:00:34.420Z,97148.53
2018-05-14T11:03:04.573Z,97148.17
2018-05-14T11:05:34.274Z,97139.37
2018-05-14T11:08:03.951Z,97150.50
2018-05-14T11:10:34.148Z,97148.76
2018-05-14T11:13:04.136Z,97159.67
2018-05-14T11:15:34.171Z,97153.59
2018-05-14T11:18:04.088Z,97145.33
2018-05-14T11:20:33.956Z,97148.53
2018-05-14T11:23:03.945Z,97143.23
2018-05-14T11:25:34.051Z,97142.53
2018-05-14T11:28:03.981Z,97147.55
2018-05-14T11:30:35.587Z,97140.85
2018-05-14T11:33:05.661Z,97130.94
2018-05-14T11:35:36.849Z,97123.70
2018-05-14T11:38:08.854Z,97125.22
2018-05-14T11:40:38.796Z,97138.11
2018-05-14T11:43:08.886Z,97126.88
2018-05-14T11:45:39.978Z,97123.38
2018-05-14T11:48:10.580Z,97127.72
2018-05-14T11:50:40.566Z,97133.50
2018-05-14T11:53:11.953Z,97138.14
2018-05-14T11:55:42.567Z,97133.20
2018-05-14T11:58:13.404Z,97134.48
2018-05-14T12:00:45.054Z,97130.80
2018-05-14T12:03:15.732Z,97129.00
2018-05-14T12:05:45.618Z,97121.19
2018-05-14T12:08:16.181Z,97112.41
2018-05-14T12:10:45.963Z,97119.37
2018-05-14T12:13:17.062Z,97117.44
2018-05-14T12:15:48.027Z,97105.02
2018-05-14T12:18:17.756Z,97108.08
2018-05-14T12:20:48.982Z,97111.56
2018-05-14T12:23:19.578Z,97107.98
2018-05-14T12:25:50.170Z,97118.14
2018-05-14T12:28:20.083Z,97123.74
2018-05-14T12:30:51.451Z,97116.45
2018-05-14T12:33:21.318Z,97111.81
2018-05-14T12:35:51.648Z,97111.56
2018-05-14T12:38:21.518Z,97111.91
2018-05-14T12:40:51.378Z,97117.76
2018-05-14T12:43:22.017Z,97114.17
2018-05-14T12:45:53.755Z,97111.31
2018-05-14T12:48:25.641Z,97107.50
2018-05-14T12:50:56.700Z,97100.65
2018-05-14T12:53:26.536Z,97102.25
2018-05-14T12:55:56.469Z,97094.18
2018-05-14T12:58:26.327Z,97089.89
2018-05-14T13:00:57.257Z,97097.87
2018-05-14T13:03:31.744Z,97088.46
2018-05-14T13:06:03.238Z,97068.08
2018-05-14T13:08:34.008Z,97086.20
2018-05-14T13:11:04.144Z,97079.97
2018-05-14T13:13:34.795Z,97080.82
2018-05-14T13:16:05.979Z,97084.73
2018-05-14T13:18:36.587Z,97081.80
2018-05-14T13:21:06.629Z,97086.22
2018-05-14T13:23:37.197Z,97085.66
2018-05-14T13:26:07.817Z,97093.11
2018-05-14T13:28:37.751Z,97087.22
2018-05-14T13:31:07.922Z,97096.42
2018-05-14T13:33:38.409Z,97092.66
2018-05-14T13:36:09.299Z,97084.42
2018-05-14T13:38:50.012Z,97087.80
2018-05-14T13:41:19.829Z,97093.41
2018-05-14T13:43:51.020Z,97090.28
2018-05-14T13:46:21.596Z,97083.63
2018-05-14T13:48:51.439Z,97096.09
2018-05-14T13:51:22.876Z,97091.36
2018-05-14T13:53:52.707Z,97114.36
2018-05-14T13:56:22.847Z,97107.42
2018-05-14T13:58:52.602Z,97103.14
2018-05-14T14:01:23.234Z,97104.09
2018-05-14T14:03:53.522Z,97109.41
2018-05-14T14:06:24.966Z,97106.45
2018-05-14T14:08:55.668Z,97108.50
2018-05-14T14:11:40.688Z,97104.21
2018-05-14T14:14:11.302Z,97100.25
2018-05-14T14:16:43.169Z,97107.07
2018-05-14T14:19:13.787Z,97099.86
2018-05-14T14:21:45.188Z,97100.62
2018-05-14T14:24:15.006Z,97091.83
2018-05-14T14:26:44.753Z,97108.33
2018-05-14T14:29:15.402Z,97095.67
2018-05-14T14:31:49.168Z,97097.20
2018-05-14T14:34:18.910Z,97108.02
2018-05-14T14:36:49.445Z,97109.92
2018-05-14T14:39:19.426Z,97114.95
2018-05-14T14:41:49.459Z,97108.56
2018-05-14T14:44:19.346Z,97115.88
2018-05-14T14:46:49.206Z,97102.74
2018-05-14T14:49:19.024Z,97107.52
2018-05-14T14:51:49.623Z,97105.66
2018-05-14T14:54:19.388Z,97108.62
2018-05-14T14:56:49.127Z,97111.98
2018-05-14T14:59:19.600Z,97110.26
2018-05-14T15:01:54.120Z,97117.71
2018-05-14T15:04:23.808Z,97114.31
2018-05-14T15:06:53.333Z,97122.03
2018-05-14T15:09:22.978Z,97124.48
2018-05-14T15:11:52.648Z,97139.59
2018-05-14T15:17:00.281Z,97132.00
2018-05-14T15:19:29.842Z,97116.75
2018-05-14T15:22:00.214Z,97128.57
2018-05-14T15:24:30.019Z,97122.33
2018-05-14T15:26:59.608Z,97120.99
2018-05-14T15:29:29.211Z,97114.11
2018-05-14T15:31:58.953Z,97121.19
2018-05-14T15:34:28.576Z,97109.90
2018-05-14T15:36:58.148Z,97120.98
2018-05-14T15:39:27.953Z,97121.64
2018-05-14T15:41:57.614Z,97145.62
2018-05-14T15:44:27.639Z,97118.38
2018-05-14T15:46:57.663Z,97134.55
2018-05-14T15:49:27.415Z,97134.61
2018-05-14T15:51:58.691Z,97137.16
2018-05-14T15:54:28.514Z,97132.44
2018-05-14T15:56:58.093Z,97153.73
2018-05-14T15:59:27.695Z,97115.41
2018-05-14T16:01:58.178Z,97158.92
2018-05-14T16:04:27.847Z,97150.36
2018-05-14T16:06:57.843Z,97147.94
2018-05-14T16:09:27.409Z,97157.19
2018-05-14T16:11:56.908Z,97157.34
2018-05-14T16:14:26.395Z,97160.07
2018-05-14T16:16:56.006Z,97166.45
2018-05-14T16:19:25.918Z,97171.72
2018-05-14T16:21:55.537Z,97167.91
2018-05-14T16:24:25.272Z,97169.48
2018-05-14T16:26:56.987Z,97161.20
2018-05-14T16:29:26.577Z,97167.77
2018-05-14T16:31:57.950Z,97157.78
2018-05-14T16:34:28.340Z,97156.55
2018-05-14T16:37:01.477Z,97159.77
2018-05-14T16:39:32.566Z,97164.68
2018-05-14T16:42:02.872Z,97159.00
2018-05-14T16:44:34.165Z,97148.42
2018-05-14T16:47:05.076Z,97158.62
2018-05-14T16:49:35.882Z,97159.52
2018-05-14T16:52:06.627Z,97160.05
2018-05-14T16:54:38.750Z,97150.87
2018-05-14T16:57:09.836Z,97156.02
2018-05-14T16:59:40.168Z,97150.81
2018-05-14T17:02:11.852Z,97155.83
2018-05-14T17:04:42.505Z,97148.70
2018-05-14T17:07:14.183Z,97140.44
2018-05-14T17:09:45.165Z,97155.78
2018-05-14T17:12:17.487Z,97156.73
2018-05-14T17:14:48.724Z,97164.67
2018-05-14T17:17:18.709Z,97169.16
2018-05-14T17:19:48.871Z,97166.64
2018-05-14T17:22:19.400Z,97167.61
2018-05-14T17:24:51.368Z,97170.44
2018-05-14T17:27:22.640Z,97166.41
2018-05-14T17:29:54.925Z,97169.24
2018-05-14T17:32:25.904Z,97168.86
2018-05-14T17:34:56.091Z,97171.97
2018-05-14T17:37:27.205Z,97162.52
2018-05-14T17:39:59.480Z,97179.02
2018-05-14T17:42:30.209Z,97167.90
2018-05-14T17:45:03.900Z,97177.80
2018-05-14T17:47:35.039Z,97180.49
2018-05-14T17:50:16.956Z,97185.53
2018-05-14T17:52:50.417Z,97182.55
2018-05-14T17:55:34.426Z,97180.48
2018-05-14T17:58:26.314Z,97186.30
2018-05-14T18:01:03.007Z,97181.84
2018-05-14T18:03:33.924Z,97181.43
2018-05-14T18:06:05.242Z,97184.56
2018-05-14T18:08:35.973Z,97190.90
2018-05-14T18:11:06.250Z,97195.66
2018-05-14T18:13:36.422Z,97186.72
2018-05-14T18:16:06.751Z,97187.41
2018-05-14T18:18:38.795Z,97193.34
2018-05-14T18:21:12.993Z,97191.83
2018-05-14T18:23:48.234Z,97190.97
2018-05-14T18:26:19.297Z,97193.67
2018-05-14T18:28:50.493Z,97195.84
2018-05-14T18:31:28.358Z,97209.25
2018-05-14T18:34:04.257Z,97206.38
2018-05-14T18:36:34.060Z,97208.81
2018-05-14T18:39:03.750Z,97205.41
2018-05-14T18:41:33.365Z,97206.07
2018-05-14T18:44:03.509Z,97207.38
2018-05-14T18:46:33.292Z,97205.06
2018-05-14T18:49:03.964Z,97210.79
2018-05-14T18:51:33.487Z,97210.47
2018-05-14T18:54:03.176Z,97210.45
2018-05-14T18:56:34.782Z,97214.83
2018-05-14T18:59:04.494Z,97220.51
2018-05-14T19:01:35.014Z,97221.25
2018-05-14T19:04:04.633Z,97222.41
2018-05-14T19:06:34.278Z,97227.72
2018-05-14T19:09:04.415Z,97236.24
2018-05-14T19:11:39.965Z,97240.84
2018-05-14T19:14:09.772Z,97243.78
2018-05-14T19:16:46.113Z,97248.45
2018-05-14T19:19:15.803Z,97239.81
2018-05-14T19:21:45.447Z,97248.72
2018-05-14T19:24:15.167Z,97254.34
2018-05-14T19:26:45.027Z,97249.84
2018-05-14T19:29:20.904Z,97249.84
2018-05-14T19:31:51.222Z,97250.22
2018-05-14T19:34:26.659Z,97253.94
2018-05-14T19:36:57.677Z,97255.48
2018-05-14T19:42:28.269Z,97253.76
2018-05-14T19:44:57.907Z,97261.03
2018-05-14T19:47:27.478Z,97260.58
2018-05-14T19:49:57.084Z,97263.11
2018-05-14T19:52:26.664Z,97270.25
2018-05-14T19:54:57.424Z,97263.21
2018-05-14T19:57:27.918Z,97271.76
2018-05-14T19:59:57.923Z,97269.89
2018-05-14T20:02:27.766Z,97269.14
2018-05-14T20:04:59.027Z,97272.50
2018-05-14T20:07:39.989Z,97273.77
2018-05-14T20:10:09.653Z,97268.83
2018-05-14T20:12:39.847Z,97264.25
2018-05-14T20:15:10.923Z,97266.48
2018-05-14T20:17:41.329Z,97267.61
2018-05-14T20:20:16.856Z,97265.33
2018-05-14T20:22:51.534Z,97265.66
2018-05-14T20:25:23.067Z,97272.91
2018-05-14T20:27:53.121Z,97275.80
2018-05-14T20:30:23.807Z,97273.37
2018-05-14T20:32:53.345Z,97266.80
2018-05-14T20:35:23.063Z,97276.08
2018-05-14T20:37:52.858Z,97271.73
2018-05-14T20:40:23.469Z,97269.81
2018-05-14T20:42:54.126Z,97269.69
2018-05-14T20:45:23.958Z,97271.85
2018-05-14T20:47:53.731Z,97272.73
2018-05-14T20:50:23.542Z,97272.80
2018-05-14T20:52:56.137Z,97275.22
2018-05-14T20:55:26.932Z,97279.94
2018-05-14T20:57:57.080Z,97274.50
2018-05-14T21:00:28.602Z,97279.52
2018-05-14T21:03:00.917Z,97279.37
2018-05-14T21:05:30.670Z,97279.28
2018-05-14T21:08:00.353Z,97275.82
2018-05-14T21:10:29.929Z,97276.55
2018-05-14T21:12:59.537Z,97272.08
2018-05-14T21:15:33.028Z,97275.98
2018-05-14T21:18:05.381Z,97277.08
2018-05-14T21:20:35.358Z,97274.73
2018-05-14T21:23:05.780Z,97269.20
2018-05-14T21:25:35.749Z,97265.84
2018-05-14T21:28:07.000Z,97266.14
2018-05-14T21:30:40.539Z,97261.17
2018-05-14T21:33:10.148Z,97261.38
2018-05-14T21:35:40.135Z,97270.16
2018-05-14T21:38:10.614Z,97267.37
2018-05-14T21:40:46.915Z,97267.84
2018-05-14T21:43:20.168Z,97268.28
2018-05-14T21:45:50.793Z,97266.42
2018-05-14T21:48:22.236Z,97265.43
2018-05-14T21:50:52.777Z,97263.28
2018-05-14T21:53:26.236Z,97257.16
2018-05-14T21:56:01.854Z,97251.95
2018-05-14T21:58:38.940Z,97254.64
2018-05-14T22:01:10.043Z,97263.22
2018-05-14T22:03:40.042Z,97263.50
2018-05-14T22:06:15.620Z,97259.67
2018-05-14T22:08:45.983Z,97256.43
2018-05-14T22:11:17.504Z,97254.48
2018-05-14T22:13:52.955Z,97251.94
2018-05-14T22:16:27.339Z,97256.14
2018-05-14T22:19:05.121Z,97262.87
2018-05-14T22:21:35.345Z,97254.15
2018-05-14T22:24:04.988Z,97260.75
2018-05-14T22:26:35.150Z,97263.91
2018-05-14T22:29:13.767Z,97259.58
2018-05-14T22:31:44.647Z,97265.70
2018-05-14T22:34:14.722Z,97267.23
2018-05-14T22:36:46.167Z,97266.13
2018-05-14T22:39:16.033Z,97273.16
2018-05-14T22:41:45.758Z,97274.46
2018-05-14T22:44:15.543Z,97267.53
2018-05-14T22:46:45.686Z,97269.36
2018-05-14T22:49:16.302Z,97263.97
2018-05-14T22:51:45.889Z,97273.38
2018-05-14T22:57:13.611Z,97267.14
2018-05-14T22:59:43.494Z,97263.91
2018-05-14T23:02:34.684Z,97268.62
2018-05-14T23:05:04.465Z,97266.84
2018-05-14T23:07:34.309Z,97261.53
2018-05-14T23:10:04.473Z,97255.81
2018-05-14T23:12:34.063Z,97260.10
2018-05-14T23:15:03.741Z,97257.62
2018-05-14T23:17:33.487Z,97257.27
2018-05-14T23:20:04.137Z,97253.34
2018-05-14T23:22:42.262Z,97249.74
2018-05-14T23:25:11.972Z,97245.70
2018-05-14T23:27:48.082Z,97243.34
2018-05-14T23:30:24.421Z,97241.79
2018-05-14T23:32:59.194Z,97236.84
2018-05-14T23:35:33.479Z,97241.99
2018-05-14T23:38:04.527Z,97250.45
2018-05-14T23:40:35.816Z,97235.06
2018-05-14T23:43:06.542Z,97232.17
2018-05-14T23:45:36.923Z,97227.05
2018-05-14T23:48:07.557Z,97226.22
2018-05-14T23:50:39.010Z,97224.50
2018-05-14T23:53:12.041Z,97229.77
2018-05-14T23:55:42.745Z,97230.76
2018-05-14T23:58:14.013Z,97221.44
